sensor_id;sensor_type;location;lat;lon;timestamp;P1;durP1;ratioP1;P2;durP2;ratioP2
63906;SDS011;50075;49.484;11.238;2023-04-25T00:01:46;140.13;;;8.77;;
63906;SDS011;50075;49.484;11.238;2023-04-25T00:04:12;109.68;;;7.38;;
63906;SDS011;50075;49.484;11.238;2023-04-25T00:06:37;135.35;;;8.13;;
63906;SDS011;50075;49.484;11.238;2023-04-25T00:09:05;115.32;;;7.82;;
63906;SDS011;50075;49.484;11.238;2023-04-25T00:11:33;127.90;;;8.07;;
63906;SDS011;50075;49.484;11.238;2023-04-25T00:13:59;141.90;;;8.90;;
63906;SDS011;50075;49.484;11.238;2023-04-25T00:16:27;143.63;;;8.85;;
63906;SDS011;50075;49.484;11.238;2023-04-25T00:18:52;131.45;;;8.48;;
63906;SDS011;50075;49.484;11.238;2023-04-25T00:21:18;121.72;;;8.18;;
63906;SDS011;50075;49.484;11.238;2023-04-25T00:23:44;150.25;;;9.27;;
63906;SDS011;50075;49.484;11.238;2023-04-25T00:26:10;134.75;;;8.88;;
63906;SDS011;50075;49.484;11.238;2023-04-25T00:28:36;109.28;;;7.90;;
63906;SDS011;50075;49.484;11.238;2023-04-25T00:31:01;133.10;;;8.73;;
63906;SDS011;50075;49.484;11.238;2023-04-25T00:33:26;103.45;;;7.60;;
63906;SDS011;50075;49.484;11.238;2023-04-25T00:35:51;97.55;;;7.32;;
63906;SDS011;50075;49.484;11.238;2023-04-25T00:38:17;114.23;;;7.87;;
63906;SDS011;50075;49.484;11.238;2023-04-25T00:40:42;99.20;;;7.07;;
63906;SDS011;50075;49.484;11.238;2023-04-25T00:43:08;100.07;;;7.35;;
63906;SDS011;50075;49.484;11.238;2023-04-25T00:45:33;131.18;;;8.35;;
63906;SDS011;50075;49.484;11.238;2023-04-25T00:48:02;90.60;;;6.53;;
63906;SDS011;50075;49.484;11.238;2023-04-25T00:50:29;111.97;;;7.53;;
63906;SDS011;50075;49.484;11.238;2023-04-25T00:52:54;116.57;;;7.33;;
63906;SDS011;50075;49.484;11.238;2023-04-25T00:55:20;97.18;;;6.95;;
63906;SDS011;50075;49.484;11.238;2023-04-25T00:57:45;119.07;;;8.10;;
63906;SDS011;50075;49.484;11.238;2023-04-25T01:00:11;109.97;;;6.90;;
63906;SDS011;50075;49.484;11.238;2023-04-25T01:02:39;120.82;;;8.20;;
63906;SDS011;50075;49.484;11.238;2023-04-25T01:05:04;119.97;;;7.93;;
63906;SDS011;50075;49.484;11.238;2023-04-25T01:07:30;116.22;;;7.68;;
63906;SDS011;50075;49.484;11.238;2023-04-25T01:09:55;105.78;;;8.05;;
63906;SDS011;50075;49.484;11.238;2023-04-25T01:12:20;117.63;;;8.10;;
63906;SDS011;50075;49.484;11.238;2023-04-25T01:14:45;101.15;;;7.45;;
63906;SDS011;50075;49.484;11.238;2023-04-25T01:17:11;120.28;;;8.48;;
63906;SDS011;50075;49.484;11.238;2023-04-25T01:19:36;107.22;;;7.63;;
63906;SDS011;50075;49.484;11.238;2023-04-25T01:22:01;112.45;;;7.55;;
63906;SDS011;50075;49.484;11.238;2023-04-25T01:24:27;117.20;;;7.95;;
63906;SDS011;50075;49.484;11.238;2023-04-25T01:26:53;102.57;;;7.75;;
63906;SDS011;50075;49.484;11.238;2023-04-25T01:29:19;113.78;;;8.23;;
63906;SDS011;50075;49.484;11.238;2023-04-25T01:31:44;104.68;;;7.15;;
63906;SDS011;50075;49.484;11.238;2023-04-25T01:34:10;108.43;;;7.93;;
63906;SDS011;50075;49.484;11.238;2023-04-25T01:36:35;128.85;;;9.25;;
63906;SDS011;50075;49.484;11.238;2023-04-25T01:39:01;93.77;;;7.90;;
63906;SDS011;50075;49.484;11.238;2023-04-25T01:41:27;119.60;;;8.07;;
63906;SDS011;50075;49.484;11.238;2023-04-25T01:43:52;176.05;;;10.68;;
63906;SDS011;50075;49.484;11.238;2023-04-25T01:46:17;103.25;;;7.10;;
63906;SDS011;50075;49.484;11.238;2023-04-25T01:48:43;117.07;;;8.50;;
63906;SDS011;50075;49.484;11.238;2023-04-25T01:51:08;182.55;;;10.98;;
63906;SDS011;50075;49.484;11.238;2023-04-25T01:53:33;118.07;;;8.05;;
63906;SDS011;50075;49.484;11.238;2023-04-25T01:55:58;125.93;;;8.63;;
63906;SDS011;50075;49.484;11.238;2023-04-25T01:58:24;101.47;;;7.53;;
63906;SDS011;50075;49.484;11.238;2023-04-25T02:00:49;92.60;;;7.13;;
63906;SDS011;50075;49.484;11.238;2023-04-25T02:03:14;103.90;;;7.87;;
63906;SDS011;50075;49.484;11.238;2023-04-25T02:05:40;93.38;;;7.43;;
63906;SDS011;50075;49.484;11.238;2023-04-25T02:08:05;124.85;;;8.65;;
63906;SDS011;50075;49.484;11.238;2023-04-25T02:10:31;101.75;;;7.40;;
63906;SDS011;50075;49.484;11.238;2023-04-25T02:12:57;96.88;;;6.80;;
63906;SDS011;50075;49.484;11.238;2023-04-25T02:15:22;123.70;;;7.28;;
63906;SDS011;50075;49.484;11.238;2023-04-25T02:17:47;101.72;;;7.15;;
63906;SDS011;50075;49.484;11.238;2023-04-25T02:20:13;103.80;;;7.65;;
63906;SDS011;50075;49.484;11.238;2023-04-25T02:22:38;127.20;;;8.52;;
63906;SDS011;50075;49.484;11.238;2023-04-25T02:25:03;96.68;;;7.63;;
63906;SDS011;50075;49.484;11.238;2023-04-25T02:27:29;124.13;;;7.88;;
63906;SDS011;50075;49.484;11.238;2023-04-25T02:29:55;110.18;;;7.55;;
63906;SDS011;50075;49.484;11.238;2023-04-25T02:32:20;104.70;;;7.20;;
63906;SDS011;50075;49.484;11.238;2023-04-25T02:34:45;130.93;;;8.30;;
63906;SDS011;50075;49.484;11.238;2023-04-25T02:37:11;93.15;;;5.90;;
63906;SDS011;50075;49.484;11.238;2023-04-25T02:39:36;103.13;;;7.10;;
63906;SDS011;50075;49.484;11.238;2023-04-25T02:42:01;127.60;;;8.17;;
63906;SDS011;50075;49.484;11.238;2023-04-25T02:44:27;111.15;;;6.65;;
63906;SDS011;50075;49.484;11.238;2023-04-25T02:46:52;114.03;;;7.45;;
63906;SDS011;50075;49.484;11.238;2023-04-25T02:49:18;95.38;;;6.70;;
63906;SDS011;50075;49.484;11.238;2023-04-25T02:51:43;106.10;;;7.55;;
63906;SDS011;50075;49.484;11.238;2023-04-25T02:54:08;132.82;;;8.13;;
63906;SDS011;50075;49.484;11.238;2023-04-25T02:56:34;103.43;;;7.57;;
63906;SDS011;50075;49.484;11.238;2023-04-25T02:58:59;100.55;;;7.00;;
63906;SDS011;50075;49.484;11.238;2023-04-25T03:01:24;111.70;;;7.25;;
63906;SDS011;50075;49.484;11.238;2023-04-25T03:03:49;133.18;;;7.88;;
63906;SDS011;50075;49.484;11.238;2023-04-25T03:06:15;108.55;;;7.82;;
63906;SDS011;50075;49.484;11.238;2023-04-25T03:08:40;107.10;;;8.13;;
63906;SDS011;50075;49.484;11.238;2023-04-25T03:11:06;98.65;;;7.85;;
63906;SDS011;50075;49.484;11.238;2023-04-25T03:13:31;139.77;;;9.15;;
63906;SDS011;50075;49.484;11.238;2023-04-25T03:15:56;95.28;;;7.93;;
63906;SDS011;50075;49.484;11.238;2023-04-25T03:18:22;115.30;;;7.88;;
63906;SDS011;50075;49.484;11.238;2023-04-25T03:20:47;117.72;;;8.65;;
63906;SDS011;50075;49.484;11.238;2023-04-25T03:23:12;88.07;;;7.70;;
63906;SDS011;50075;49.484;11.238;2023-04-25T03:25:37;105.38;;;8.05;;
63906;SDS011;50075;49.484;11.238;2023-04-25T03:28:03;120.53;;;8.73;;
63906;SDS011;50075;49.484;11.238;2023-04-25T03:30:28;106.33;;;8.37;;
63906;SDS011;50075;49.484;11.238;2023-04-25T03:32:53;130.32;;;9.30;;
63906;SDS011;50075;49.484;11.238;2023-04-25T03:35:18;95.22;;;7.75;;
63906;SDS011;50075;49.484;11.238;2023-04-25T03:37:43;116.35;;;8.02;;
63906;SDS011;50075;49.484;11.238;2023-04-25T03:40:11;130.55;;;9.20;;
63906;SDS011;50075;49.484;11.238;2023-04-25T03:42:37;112.90;;;8.82;;
63906;SDS011;50075;49.484;11.238;2023-04-25T03:45:02;88.32;;;8.55;;
63906;SDS011;50075;49.484;11.238;2023-04-25T03:47:30;131.73;;;9.50;;
63906;SDS011;50075;49.484;11.238;2023-04-25T03:49:55;98.27;;;8.03;;
63906;SDS011;50075;49.484;11.238;2023-04-25T03:52:20;150.80;;;9.95;;
63906;SDS011;50075;49.484;11.238;2023-04-25T03:54:46;99.72;;;8.32;;
63906;SDS011;50075;49.484;11.238;2023-04-25T03:57:11;107.18;;;8.23;;
63906;SDS011;50075;49.484;11.238;2023-04-25T03:59:36;124.30;;;9.48;;
63906;SDS011;50075;49.484;11.238;2023-04-25T04:02:01;104.32;;;8.20;;
63906;SDS011;50075;49.484;11.238;2023-04-25T04:04:27;113.80;;;8.40;;
63906;SDS011;50075;49.484;11.238;2023-04-25T04:06:52;103.57;;;8.90;;
63906;SDS011;50075;49.484;11.238;2023-04-25T04:09:17;86.00;;;7.85;;
63906;SDS011;50075;49.484;11.238;2023-04-25T04:11:43;116.43;;;8.73;;
63906;SDS011;50075;49.484;11.238;2023-04-25T04:14:08;124.80;;;8.68;;
63906;SDS011;50075;49.484;11.238;2023-04-25T04:16:34;99.82;;;7.95;;
63906;SDS011;50075;49.484;11.238;2023-04-25T04:19:00;112.82;;;8.40;;
63906;SDS011;50075;49.484;11.238;2023-04-25T04:21:25;97.10;;;8.15;;
63906;SDS011;50075;49.484;11.238;2023-04-25T04:23:52;166.05;;;9.85;;
63906;SDS011;50075;49.484;11.238;2023-04-25T04:26:20;98.65;;;7.95;;
63906;SDS011;50075;49.484;11.238;2023-04-25T04:28:48;93.40;;;7.82;;
63906;SDS011;50075;49.484;11.238;2023-04-25T04:31:13;125.90;;;8.77;;
63906;SDS011;50075;49.484;11.238;2023-04-25T04:33:41;132.77;;;7.53;;
63906;SDS011;50075;49.484;11.238;2023-04-25T04:36:07;95.50;;;8.15;;
63906;SDS011;50075;49.484;11.238;2023-04-25T04:38:32;116.32;;;9.77;;
63906;SDS011;50075;49.484;11.238;2023-04-25T04:40:58;112.05;;;8.63;;
63906;SDS011;50075;49.484;11.238;2023-04-25T04:43:23;117.35;;;8.82;;
63906;SDS011;50075;49.484;11.238;2023-04-25T04:45:49;96.82;;;8.15;;
63906;SDS011;50075;49.484;11.238;2023-04-25T04:48:15;98.88;;;8.38;;
63906;SDS011;50075;49.484;11.238;2023-04-25T04:50:40;123.13;;;9.13;;
63906;SDS011;50075;49.484;11.238;2023-04-25T04:53:07;107.25;;;8.63;;
63906;SDS011;50075;49.484;11.238;2023-04-25T04:55:33;107.50;;;8.45;;
63906;SDS011;50075;49.484;11.238;2023-04-25T04:57:58;110.03;;;8.87;;
63906;SDS011;50075;49.484;11.238;2023-04-25T05:00:23;118.53;;;9.65;;
63906;SDS011;50075;49.484;11.238;2023-04-25T05:02:49;116.90;;;8.43;;
63906;SDS011;50075;49.484;11.238;2023-04-25T05:05:14;91.60;;;8.43;;
63906;SDS011;50075;49.484;11.238;2023-04-25T05:07:39;76.82;;;6.50;;
63906;SDS011;50075;49.484;11.238;2023-04-25T05:10:06;134.65;;;9.20;;
63906;SDS011;50075;49.484;11.238;2023-04-25T05:12:31;114.18;;;8.70;;
63906;SDS011;50075;49.484;11.238;2023-04-25T05:14:56;117.05;;;9.00;;
63906;SDS011;50075;49.484;11.238;2023-04-25T05:17:22;122.63;;;9.63;;
63906;SDS011;50075;49.484;11.238;2023-04-25T05:19:47;88.00;;;8.40;;
63906;SDS011;50075;49.484;11.238;2023-04-25T05:22:12;129.93;;;8.73;;
63906;SDS011;50075;49.484;11.238;2023-04-25T05:24:37;111.97;;;9.57;;
63906;SDS011;50075;49.484;11.238;2023-04-25T05:27:03;101.30;;;8.37;;
63906;SDS011;50075;49.484;11.238;2023-04-25T05:29:28;116.85;;;9.70;;
63906;SDS011;50075;49.484;11.238;2023-04-25T05:31:53;99.17;;;8.67;;
63906;SDS011;50075;49.484;11.238;2023-04-25T05:34:18;96.18;;;6.25;;
63906;SDS011;50075;49.484;11.238;2023-04-25T05:36:44;117.80;;;8.77;;
63906;SDS011;50075;49.484;11.238;2023-04-25T05:39:09;110.82;;;9.32;;
63906;SDS011;50075;49.484;11.238;2023-04-25T05:41:34;142.98;;;13.82;;
63906;SDS011;50075;49.484;11.238;2023-04-25T05:44:00;156.70;;;12.57;;
63906;SDS011;50075;49.484;11.238;2023-04-25T05:46:25;112.50;;;10.97;;
63906;SDS011;50075;49.484;11.238;2023-04-25T05:48:50;109.67;;;9.27;;
63906;SDS011;50075;49.484;11.238;2023-04-25T05:51:15;138.35;;;10.18;;
63906;SDS011;50075;49.484;11.238;2023-04-25T05:53:41;134.02;;;9.48;;
63906;SDS011;50075;49.484;11.238;2023-04-25T05:56:06;114.55;;;8.75;;
63906;SDS011;50075;49.484;11.238;2023-04-25T05:58:31;91.63;;;7.90;;
63906;SDS011;50075;49.484;11.238;2023-04-25T06:00:57;104.37;;;8.13;;
63906;SDS011;50075;49.484;11.238;2023-04-25T06:03:22;110.13;;;8.43;;
63906;SDS011;50075;49.484;11.238;2023-04-25T06:05:47;115.47;;;8.40;;
63906;SDS011;50075;49.484;11.238;2023-04-25T06:08:12;116.37;;;7.97;;
63906;SDS011;50075;49.484;11.238;2023-04-25T06:10:38;93.03;;;7.57;;
63906;SDS011;50075;49.484;11.238;2023-04-25T06:13:03;90.30;;;7.13;;
63906;SDS011;50075;49.484;11.238;2023-04-25T06:15:29;128.90;;;8.38;;
63906;SDS011;50075;49.484;11.238;2023-04-25T06:17:55;83.63;;;6.67;;
63906;SDS011;50075;49.484;11.238;2023-04-25T06:20:20;90.70;;;6.68;;
63906;SDS011;50075;49.484;11.238;2023-04-25T06:22:48;65.43;;;5.43;;
63906;SDS011;50075;49.484;11.238;2023-04-25T06:25:13;76.72;;;6.10;;
63906;SDS011;50075;49.484;11.238;2023-04-25T06:27:38;115.50;;;8.35;;
63906;SDS011;50075;49.484;11.238;2023-04-25T06:30:04;122.85;;;8.05;;
63906;SDS011;50075;49.484;11.238;2023-04-25T06:32:30;101.93;;;7.10;;
63906;SDS011;50075;49.484;11.238;2023-04-25T06:34:55;89.35;;;6.47;;
63906;SDS011;50075;49.484;11.238;2023-04-25T06:37:20;77.35;;;6.03;;
63906;SDS011;50075;49.484;11.238;2023-04-25T06:39:45;97.57;;;7.55;;
63906;SDS011;50075;49.484;11.238;2023-04-25T06:42:11;111.22;;;8.27;;
63906;SDS011;50075;49.484;11.238;2023-04-25T06:44:36;100.50;;;7.10;;
63906;SDS011;50075;49.484;11.238;2023-04-25T06:47:01;91.72;;;6.65;;
63906;SDS011;50075;49.484;11.238;2023-04-25T06:49:26;76.30;;;5.83;;
63906;SDS011;50075;49.484;11.238;2023-04-25T06:51:52;77.20;;;6.40;;
63906;SDS011;50075;49.484;11.238;2023-04-25T06:54:17;93.77;;;6.53;;
63906;SDS011;50075;49.484;11.238;2023-04-25T06:56:42;74.47;;;6.50;;
63906;SDS011;50075;49.484;11.238;2023-04-25T06:59:07;87.32;;;6.53;;
63906;SDS011;50075;49.484;11.238;2023-04-25T07:01:33;100.27;;;6.93;;
63906;SDS011;50075;49.484;11.238;2023-04-25T07:03:58;92.65;;;6.82;;
63906;SDS011;50075;49.484;11.238;2023-04-25T07:06:23;97.97;;;6.80;;
63906;SDS011;50075;49.484;11.238;2023-04-25T07:08:50;88.38;;;6.90;;
63906;SDS011;50075;49.484;11.238;2023-04-25T07:11:16;90.40;;;7.18;;
63906;SDS011;50075;49.484;11.238;2023-04-25T07:13:41;162.83;;;10.60;;
63906;SDS011;50075;49.484;11.238;2023-04-25T07:16:06;90.03;;;6.67;;
63906;SDS011;50075;49.484;11.238;2023-04-25T07:18:31;67.93;;;6.90;;
63906;SDS011;50075;49.484;11.238;2023-04-25T07:20:56;106.15;;;7.13;;
63906;SDS011;50075;49.484;11.238;2023-04-25T07:23:22;85.35;;;6.63;;
63906;SDS011;50075;49.484;11.238;2023-04-25T07:25:47;103.38;;;7.78;;
63906;SDS011;50075;49.484;11.238;2023-04-25T07:28:13;91.22;;;7.25;;
63906;SDS011;50075;49.484;11.238;2023-04-25T07:30:38;83.43;;;7.13;;
63906;SDS011;50075;49.484;11.238;2023-04-25T07:33:03;107.73;;;7.70;;
63906;SDS011;50075;49.484;11.238;2023-04-25T07:35:28;90.13;;;7.53;;
63906;SDS011;50075;49.484;11.238;2023-04-25T07:37:54;88.82;;;7.15;;
63906;SDS011;50075;49.484;11.238;2023-04-25T07:40:19;105.95;;;7.43;;
63906;SDS011;50075;49.484;11.238;2023-04-25T07:42:44;91.43;;;5.68;;
63906;SDS011;50075;49.484;11.238;2023-04-25T07:45:10;94.93;;;6.68;;
63906;SDS011;50075;49.484;11.238;2023-04-25T07:47:35;88.22;;;5.72;;
63906;SDS011;50075;49.484;11.238;2023-04-25T07:50:01;89.85;;;6.43;;
63906;SDS011;50075;49.484;11.238;2023-04-25T07:52:26;127.28;;;7.45;;
63906;SDS011;50075;49.484;11.238;2023-04-25T07:54:51;73.05;;;5.38;;
63906;SDS011;50075;49.484;11.238;2023-04-25T07:57:17;83.93;;;6.28;;
63906;SDS011;50075;49.484;11.238;2023-04-25T07:59:43;100.60;;;6.32;;
63906;SDS011;50075;49.484;11.238;2023-04-25T08:02:08;85.15;;;6.10;;
63906;SDS011;50075;49.484;11.238;2023-04-25T08:04:33;94.97;;;6.50;;
63906;SDS011;50075;49.484;11.238;2023-04-25T08:06:59;91.25;;;6.45;;
63906;SDS011;50075;49.484;11.238;2023-04-25T08:09:24;88.87;;;5.93;;
63906;SDS011;50075;49.484;11.238;2023-04-25T08:11:50;86.45;;;5.85;;
63906;SDS011;50075;49.484;11.238;2023-04-25T08:14:15;93.70;;;6.27;;
63906;SDS011;50075;49.484;11.238;2023-04-25T08:16:40;83.85;;;6.05;;
63906;SDS011;50075;49.484;11.238;2023-04-25T08:19:05;99.45;;;6.38;;
63906;SDS011;50075;49.484;11.238;2023-04-25T08:21:31;99.17;;;6.07;;
63906;SDS011;50075;49.484;11.238;2023-04-25T08:23:56;82.50;;;5.68;;
63906;SDS011;50075;49.484;11.238;2023-04-25T08:26:23;87.75;;;5.93;;
63906;SDS011;50075;49.484;11.238;2023-04-25T08:28:48;90.53;;;6.15;;
63906;SDS011;50075;49.484;11.238;2023-04-25T08:31:13;94.70;;;5.82;;
63906;SDS011;50075;49.484;11.238;2023-04-25T08:33:38;111.87;;;7.37;;
63906;SDS011;50075;49.484;11.238;2023-04-25T08:36:04;84.93;;;5.90;;
63906;SDS011;50075;49.484;11.238;2023-04-25T08:38:29;99.88;;;6.60;;
63906;SDS011;50075;49.484;11.238;2023-04-25T08:40:54;89.72;;;6.40;;
63906;SDS011;50075;49.484;11.238;2023-04-25T08:43:21;98.10;;;6.40;;
63906;SDS011;50075;49.484;11.238;2023-04-25T08:45:48;85.07;;;6.13;;
63906;SDS011;50075;49.484;11.238;2023-04-25T08:48:14;68.53;;;5.10;;
63906;SDS011;50075;49.484;11.238;2023-04-25T08:50:59;113.10;;;6.68;;
63906;SDS011;50075;49.484;11.238;2023-04-25T08:53:26;86.68;;;6.47;;
63906;SDS011;50075;49.484;11.238;2023-04-25T08:55:53;89.03;;;6.25;;
63906;SDS011;50075;49.484;11.238;2023-04-25T08:58:18;87.95;;;6.05;;
63906;SDS011;50075;49.484;11.238;2023-04-25T09:00:45;88.22;;;6.18;;
63906;SDS011;50075;49.484;11.238;2023-04-25T09:03:12;93.72;;;6.20;;
63906;SDS011;50075;49.484;11.238;2023-04-25T09:05:37;94.88;;;6.70;;
63906;SDS011;50075;49.484;11.238;2023-04-25T09:08:02;94.90;;;6.40;;
63906;SDS011;50075;49.484;11.238;2023-04-25T09:10:28;75.95;;;5.80;;
63906;SDS011;50075;49.484;11.238;2023-04-25T09:13:09;67.53;;;5.63;;
63906;SDS011;50075;49.484;11.238;2023-04-25T09:15:51;82.00;;;5.88;;
63906;SDS011;50075;49.484;11.238;2023-04-25T09:20:50;63.70;;;5.68;;
63906;SDS011;50075;49.484;11.238;2023-04-25T09:23:16;73.47;;;5.72;;
63906;SDS011;50075;49.484;11.238;2023-04-25T09:25:41;84.22;;;6.40;;
63906;SDS011;50075;49.484;11.238;2023-04-25T09:28:08;86.63;;;5.95;;
63906;SDS011;50075;49.484;11.238;2023-04-25T09:30:34;108.63;;;7.30;;
63906;SDS011;50075;49.484;11.238;2023-04-25T09:33:06;74.65;;;5.95;;
63906;SDS011;50075;49.484;11.238;2023-04-25T09:37:57;86.05;;;6.38;;
63906;SDS011;50075;49.484;11.238;2023-04-25T09:40:22;61.37;;;5.37;;
63906;SDS011;50075;49.484;11.238;2023-04-25T09:42:47;92.95;;;6.88;;
63906;SDS011;50075;49.484;11.238;2023-04-25T09:45:13;83.07;;;6.20;;
63906;SDS011;50075;49.484;11.238;2023-04-25T09:47:40;84.03;;;6.43;;
63906;SDS011;50075;49.484;11.238;2023-04-25T09:50:13;108.53;;;7.75;;
63906;SDS011;50075;49.484;11.238;2023-04-25T09:52:38;93.57;;;6.95;;
63906;SDS011;50075;49.484;11.238;2023-04-25T09:55:04;98.63;;;7.27;;
63906;SDS011;50075;49.484;11.238;2023-04-25T09:57:29;94.13;;;7.20;;
63906;SDS011;50075;49.484;11.238;2023-04-25T09:59:55;90.43;;;6.90;;
63906;SDS011;50075;49.484;11.238;2023-04-25T10:02:21;105.47;;;7.20;;
63906;SDS011;50075;49.484;11.238;2023-04-25T10:04:48;74.95;;;6.25;;
63906;SDS011;50075;49.484;11.238;2023-04-25T10:07:14;67.03;;;5.75;;
63906;SDS011;50075;49.484;11.238;2023-04-25T10:09:39;104.13;;;6.93;;
63906;SDS011;50075;49.484;11.238;2023-04-25T10:12:05;87.13;;;6.28;;
63906;SDS011;50075;49.484;11.238;2023-04-25T10:14:31;64.20;;;5.10;;
63906;SDS011;50075;49.484;11.238;2023-04-25T10:16:57;79.78;;;5.93;;
63906;SDS011;50075;49.484;11.238;2023-04-25T10:19:22;81.85;;;5.68;;
63906;SDS011;50075;49.484;11.238;2023-04-25T10:22:23;118.80;;;7.38;;
63906;SDS011;50075;49.484;11.238;2023-04-25T10:24:40;93.90;;;6.47;;
63906;SDS011;50075;49.484;11.238;2023-04-25T10:27:05;96.00;;;6.78;;
63906;SDS011;50075;49.484;11.238;2023-04-25T10:29:31;82.72;;;6.10;;
63906;SDS011;50075;49.484;11.238;2023-04-25T10:31:56;101.20;;;6.72;;
63906;SDS011;50075;49.484;11.238;2023-04-25T10:34:38;69.05;;;5.72;;
63906;SDS011;50075;49.484;11.238;2023-04-25T10:37:08;89.15;;;6.57;;
63906;SDS011;50075;49.484;11.238;2023-04-25T10:39:33;86.07;;;6.13;;
63906;SDS011;50075;49.484;11.238;2023-04-25T10:41:59;91.47;;;5.95;;
63906;SDS011;50075;49.484;11.238;2023-04-25T10:44:30;79.15;;;5.28;;
63906;SDS011;50075;49.484;11.238;2023-04-25T10:46:55;83.25;;;5.68;;
63906;SDS011;50075;49.484;11.238;2023-04-25T10:49:34;108.88;;;6.80;;
63906;SDS011;50075;49.484;11.238;2023-04-25T10:52:16;79.13;;;5.30;;
63906;SDS011;50075;49.484;11.238;2023-04-25T10:57:07;86.37;;;5.30;;
63906;SDS011;50075;49.484;11.238;2023-04-25T10:59:32;85.97;;;5.63;;
63906;SDS011;50075;49.484;11.238;2023-04-25T11:01:57;76.78;;;4.85;;
63906;SDS011;50075;49.484;11.238;2023-04-25T11:04:24;74.03;;;5.03;;
63906;SDS011;50075;49.484;11.238;2023-04-25T11:09:27;73.53;;;5.00;;
63906;SDS011;50075;49.484;11.238;2023-04-25T11:11:56;95.22;;;5.85;;
63906;SDS011;50075;49.484;11.238;2023-04-25T11:14:21;81.53;;;5.55;;
63906;SDS011;50075;49.484;11.238;2023-04-25T11:16:47;94.90;;;6.00;;
63906;SDS011;50075;49.484;11.238;2023-04-25T11:19:12;89.60;;;6.00;;
63906;SDS011;50075;49.484;11.238;2023-04-25T11:21:37;91.97;;;5.50;;
63906;SDS011;50075;49.484;11.238;2023-04-25T11:24:03;112.32;;;6.80;;
63906;SDS011;50075;49.484;11.238;2023-04-25T11:26:29;67.85;;;5.47;;
63906;SDS011;50075;49.484;11.238;2023-04-25T11:28:58;78.10;;;5.55;;
63906;SDS011;50075;49.484;11.238;2023-04-25T11:31:24;88.40;;;5.70;;
63906;SDS011;50075;49.484;11.238;2023-04-25T11:33:50;149.68;;;8.77;;
63906;SDS011;50075;49.484;11.238;2023-04-25T11:36:16;116.88;;;6.80;;
63906;SDS011;50075;49.484;11.238;2023-04-25T11:38:41;88.57;;;5.70;;
63906;SDS011;50075;49.484;11.238;2023-04-25T11:41:07;87.23;;;5.47;;
63906;SDS011;50075;49.484;11.238;2023-04-25T11:43:32;78.70;;;5.40;;
63906;SDS011;50075;49.484;11.238;2023-04-25T11:45:57;73.33;;;4.97;;
63906;SDS011;50075;49.484;11.238;2023-04-25T11:48:22;79.60;;;4.97;;
63906;SDS011;50075;49.484;11.238;2023-04-25T11:50:47;90.03;;;5.50;;
63906;SDS011;50075;49.484;11.238;2023-04-25T11:53:13;88.47;;;5.93;;
63906;SDS011;50075;49.484;11.238;2023-04-25T11:55:38;107.22;;;6.28;;
63906;SDS011;50075;49.484;11.238;2023-04-25T11:58:04;88.65;;;5.30;;
63906;SDS011;50075;49.484;11.238;2023-04-25T12:00:30;85.50;;;5.35;;
63906;SDS011;50075;49.484;11.238;2023-04-25T12:02:56;106.75;;;6.32;;
63906;SDS011;50075;49.484;11.238;2023-04-25T12:05:26;64.35;;;4.35;;
63906;SDS011;50075;49.484;11.238;2023-04-25T12:07:51;83.40;;;5.35;;
63906;SDS011;50075;49.484;11.238;2023-04-25T12:10:17;82.75;;;5.07;;
63906;SDS011;50075;49.484;11.238;2023-04-25T12:12:44;92.75;;;5.47;;
63906;SDS011;50075;49.484;11.238;2023-04-25T12:17:35;90.78;;;5.25;;
63906;SDS011;50075;49.484;11.238;2023-04-25T12:20:09;94.07;;;5.82;;
63906;SDS011;50075;49.484;11.238;2023-04-25T12:22:35;80.93;;;4.88;;
63906;SDS011;50075;49.484;11.238;2023-04-25T12:25:01;92.70;;;5.57;;
63906;SDS011;50075;49.484;11.238;2023-04-25T12:27:30;104.68;;;6.10;;
63906;SDS011;50075;49.484;11.238;2023-04-25T12:29:55;94.35;;;5.57;;
63906;SDS011;50075;49.484;11.238;2023-04-25T12:32:21;108.03;;;5.95;;
63906;SDS011;50075;49.484;11.238;2023-04-25T12:34:46;77.90;;;4.65;;
63906;SDS011;50075;49.484;11.238;2023-04-25T12:37:12;73.70;;;4.85;;
63906;SDS011;50075;49.484;11.238;2023-04-25T12:39:37;105.18;;;6.18;;
63906;SDS011;50075;49.484;11.238;2023-04-25T12:42:03;80.37;;;4.80;;
63906;SDS011;50075;49.484;11.238;2023-04-25T12:44:28;68.35;;;4.38;;
63906;SDS011;50075;49.484;11.238;2023-04-25T12:46:53;91.07;;;5.50;;
63906;SDS011;50075;49.484;11.238;2023-04-25T12:49:19;97.82;;;5.75;;
63906;SDS011;50075;49.484;11.238;2023-04-25T12:51:45;95.53;;;5.82;;
63906;SDS011;50075;49.484;11.238;2023-04-25T12:54:10;76.82;;;4.97;;
63906;SDS011;50075;49.484;11.238;2023-04-25T12:56:36;68.82;;;4.30;;
63906;SDS011;50075;49.484;11.238;2023-04-25T12:59:01;96.32;;;5.93;;
63906;SDS011;50075;49.484;11.238;2023-04-25T13:01:28;97.72;;;5.55;;
63906;SDS011;50075;49.484;11.238;2023-04-25T13:03:53;127.53;;;7.10;;
63906;SDS011;50075;49.484;11.238;2023-04-25T13:06:19;78.78;;;5.00;;
63906;SDS011;50075;49.484;11.238;2023-04-25T13:08:44;71.55;;;4.38;;
63906;SDS011;50075;49.484;11.238;2023-04-25T13:11:10;89.95;;;5.50;;
63906;SDS011;50075;49.484;11.238;2023-04-25T13:13:36;79.78;;;5.00;;
63906;SDS011;50075;49.484;11.238;2023-04-25T13:16:02;77.43;;;5.40;;
63906;SDS011;50075;49.484;11.238;2023-04-25T13:18:30;120.50;;;6.60;;
63906;SDS011;50075;49.484;11.238;2023-04-25T13:20:56;82.20;;;5.22;;
63906;SDS011;50075;49.484;11.238;2023-04-25T13:23:21;73.40;;;4.70;;
63906;SDS011;50075;49.484;11.238;2023-04-25T13:25:47;84.18;;;5.05;;
63906;SDS011;50075;49.484;11.238;2023-04-25T13:28:12;95.00;;;5.80;;
63906;SDS011;50075;49.484;11.238;2023-04-25T13:30:38;83.60;;;5.22;;
63906;SDS011;50075;49.484;11.238;2023-04-25T13:33:03;76.25;;;4.85;;
63906;SDS011;50075;49.484;11.238;2023-04-25T13:35:29;180.60;;;9.87;;
63906;SDS011;50075;49.484;11.238;2023-04-25T13:37:54;92.57;;;5.65;;
63906;SDS011;50075;49.484;11.238;2023-04-25T13:40:19;86.95;;;5.40;;
63906;SDS011;50075;49.484;11.238;2023-04-25T13:42:45;82.35;;;5.43;;
63906;SDS011;50075;49.484;11.238;2023-04-25T13:45:10;94.97;;;5.77;;
63906;SDS011;50075;49.484;11.238;2023-04-25T13:47:36;80.00;;;4.90;;
63906;SDS011;50075;49.484;11.238;2023-04-25T13:50:01;96.68;;;5.72;;
63906;SDS011;50075;49.484;11.238;2023-04-25T13:52:28;103.72;;;6.03;;
63906;SDS011;50075;49.484;11.238;2023-04-25T13:54:53;78.60;;;5.00;;
63906;SDS011;50075;49.484;11.238;2023-04-25T13:57:18;90.17;;;5.43;;
63906;SDS011;50075;49.484;11.238;2023-04-25T13:59:44;83.18;;;5.22;;
63906;SDS011;50075;49.484;11.238;2023-04-25T14:02:09;81.20;;;5.17;;
63906;SDS011;50075;49.484;11.238;2023-04-25T14:04:34;83.13;;;5.05;;
63906;SDS011;50075;49.484;11.238;2023-04-25T14:07:00;74.43;;;4.65;;
63906;SDS011;50075;49.484;11.238;2023-04-25T14:09:25;84.68;;;5.63;;
63906;SDS011;50075;49.484;11.238;2023-04-25T14:11:52;80.40;;;5.30;;
63906;SDS011;50075;49.484;11.238;2023-04-25T14:14:17;90.93;;;5.28;;
63906;SDS011;50075;49.484;11.238;2023-04-25T14:16:43;102.07;;;6.05;;
63906;SDS011;50075;49.484;11.238;2023-04-25T14:19:08;68.45;;;4.57;;
63906;SDS011;50075;49.484;11.238;2023-04-25T14:21:33;67.65;;;4.85;;